sensor_id;sensor_type;location;lat;lon;timestamp;temperature;humidity
21918;DHT22;11123;49.882;8.662;2022-07-22T00:00:02;20.30;99.90
21918;DHT22;11123;49.882;8.662;2022-07-22T00:02:32;20.30;99.90
21918;DHT22;11123;49.882;8.662;2022-07-22T00:05:01;20.30;99.90
21918;DHT22;11123;49.882;8.662;2022-07-22T00:07:29;20.30;99.90
21918;DHT22;11123;49.882;8.662;2022-07-22T00:09:58;20.30;99.90
21918;DHT22;11123;49.882;8.662;2022-07-22T00:12:26;20.30;99.90
21918;DHT22;11123;49.882;8.662;2022-07-22T00:14:54;20.20;99.90
21918;DHT22;11123;49.882;8.662;2022-07-22T00:17:22;20.20;99.90
21918;DHT22;11123;49.882;8.662;2022-07-22T00:19:52;20.10;99.90
21918;DHT22;11123;49.882;8.662;2022-07-22T00:22:20;20.10;99.90
21918;DHT22;11123;49.882;8.662;2022-07-22T00:24:48;20.10;99.90
21918;DHT22;11123;49.882;8.662;2022-07-22T00:27:16;20.10;99.90
21918;DHT22;11123;49.882;8.662;2022-07-22T00:29:45;20.10;99.90
21918;DHT22;11123;49.882;8.662;2022-07-22T00:32:13;20.00;99.90
21918;DHT22;11123;49.882;8.662;2022-07-22T00:34:41;20.00;99.90
21918;DHT22;11123;49.882;8.662;2022-07-22T00:37:11;19.90;99.90
21918;DHT22;11123;49.882;8.662;2022-07-22T00:39:39;19.90;99.90
21918;DHT22;11123;49.882;8.662;2022-07-22T00:42:07;19.90;99.90
21918;DHT22;11123;49.882;8.662;2022-07-22T00:44:37;19.80;99.90
21918;DHT22;11123;49.882;8.662;2022-07-22T00:47:07;19.80;99.90
21918;DHT22;11123;49.882;8.662;2022-07-22T00:49:35;19.90;99.90
21918;DHT22;11123;49.882;8.662;2022-07-22T00:52:04;19.80;99.90
21918;DHT22;11123;49.882;8.662;2022-07-22T00:54:36;19.70;99.90
21918;DHT22;11123;49.882;8.662;2022-07-22T00:57:05;19.60;99.90
21918;DHT22;11123;49.882;8.662;2022-07-22T00:59:33;19.60;99.90
21918;DHT22;11123;49.882;8.662;2022-07-22T01:02:02;19.50;99.90
21918;DHT22;11123;49.882;8.662;2022-07-22T01:04:30;19.60;99.90
21918;DHT22;11123;49.882;8.662;2022-07-22T01:06:59;19.50;99.90
21918;DHT22;11123;49.882;8.662;2022-07-22T01:09:27;19.50;99.90
21918;DHT22;11123;49.882;8.662;2022-07-22T01:11:57;19.40;99.90
21918;DHT22;11123;49.882;8.662;2022-07-22T01:14:25;19.40;99.90
21918;DHT22;11123;49.882;8.662;2022-07-22T01:16:53;19.40;99.90
21918;DHT22;11123;49.882;8.662;2022-07-22T01:19:22;19.40;99.90
21918;DHT22;11123;49.882;8.662;2022-07-22T01:21:51;19.30;99.90
21918;DHT22;11123;49.882;8.662;2022-07-22T01:24:20;19.30;99.90
21918;DHT22;11123;49.882;8.662;2022-07-22T01:26:48;19.20;99.90
21918;DHT22;11123;49.882;8.662;2022-07-22T01:29:17;19.20;99.90
21918;DHT22;11123;49.882;8.662;2022-07-22T01:31:45;19.20;99.90
21918;DHT22;11123;49.882;8.662;2022-07-22T01:34:14;19.20;99.90
21918;DHT22;11123;49.882;8.662;2022-07-22T01:36:42;19.20;99.90
21918;DHT22;11123;49.882;8.662;2022-07-22T01:39:11;19.10;99.90
21918;DHT22;11123;49.882;8.662;2022-07-22T01:41:41;19.20;99.90
21918;DHT22;11123;49.882;8.662;2022-07-22T01:44:11;19.10;99.90
21918;DHT22;11123;49.882;8.662;2022-07-22T01:46:40;19.10;99.90
21918;DHT22;11123;49.882;8.662;2022-07-22T01:49:08;19.10;99.90
21918;DHT22;11123;49.882;8.662;2022-07-22T01:51:38;19.00;99.90
21918;DHT22;11123;49.882;8.662;2022-07-22T01:54:06;19.10;99.90
21918;DHT22;11123;49.882;8.662;2022-07-22T01:56:37;19.10;99.90
21918;DHT22;11123;49.882;8.662;2022-07-22T01:59:05;19.00;99.90
21918;DHT22;11123;49.882;8.662;2022-07-22T02:01:34;19.00;99.90
21918;DHT22;11123;49.882;8.662;2022-07-22T02:04:02;19.10;99.90
21918;DHT22;11123;49.882;8.662;2022-07-22T02:06:31;19.10;99.90
21918;DHT22;11123;49.882;8.662;2022-07-22T02:09:00;19.10;99.90
21918;DHT22;11123;49.882;8.662;2022-07-22T02:11:47;19.00;99.90
21918;DHT22;11123;49.882;8.662;2022-07-22T02:14:16;19.00;99.90
21918;DHT22;11123;49.882;8.662;2022-07-22T02:16:45;19.00;99.90
21918;DHT22;11123;49.882;8.662;2022-07-22T02:19:13;19.00;99.90
21918;DHT22;11123;49.882;8.662;2022-07-22T02:21:41;19.00;99.90
21918;DHT22;11123;49.882;8.662;2022-07-22T02:24:10;19.00;99.90
21918;DHT22;11123;49.882;8.662;2022-07-22T02:26:38;18.90;99.90
21918;DHT22;11123;49.882;8.662;2022-07-22T02:29:08;18.90;99.90
21918;DHT22;11123;49.882;8.662;2022-07-22T02:31:36;18.90;99.90
21918;DHT22;11123;49.882;8.662;2022-07-22T02:34:07;18.90;99.90
21918;DHT22;11123;49.882;8.662;2022-07-22T02:36:36;18.90;99.90
21918;DHT22;11123;49.882;8.662;2022-07-22T02:39:05;18.90;99.90
21918;DHT22;11123;49.882;8.662;2022-07-22T02:41:34;19.00;99.90
21918;DHT22;11123;49.882;8.662;2022-07-22T02:44:03;19.00;99.90
21918;DHT22;11123;49.882;8.662;2022-07-22T02:46:33;19.00;99.90
21918;DHT22;11123;49.882;8.662;2022-07-22T02:49:11;19.00;99.90
21918;DHT22;11123;49.882;8.662;2022-07-22T02:51:39;19.10;99.90
21918;DHT22;11123;49.882;8.662;2022-07-22T02:54:07;19.10;99.90
21918;DHT22;11123;49.882;8.662;2022-07-22T02:56:36;19.00;99.90
21918;DHT22;11123;49.882;8.662;2022-07-22T02:59:04;19.00;99.90
21918;DHT22;11123;49.882;8.662;2022-07-22T03:01:34;19.00;99.90
21918;DHT22;11123;49.882;8.662;2022-07-22T03:04:02;19.00;99.90
21918;DHT22;11123;49.882;8.662;2022-07-22T03:06:34;19.00;99.90
21918;DHT22;11123;49.882;8.662;2022-07-22T03:09:18;19.00;99.90
21918;DHT22;11123;49.882;8.662;2022-07-22T03:11:46;19.00;99.90
21918;DHT22;11123;49.882;8.662;2022-07-22T03:14:14;19.00;99.90
21918;DHT22;11123;49.882;8.662;2022-07-22T03:16:46;18.90;99.90
21918;DHT22;11123;49.882;8.662;2022-07-22T03:19:15;19.00;99.90
21918;DHT22;11123;49.882;8.662;2022-07-22T03:21:47;19.00;99.90
21918;DHT22;11123;49.882;8.662;2022-07-22T03:24:15;19.00;99.90
21918;DHT22;11123;49.882;8.662;2022-07-22T03:26:44;19.00;99.90
21918;DHT22;11123;49.882;8.662;2022-07-22T03:29:12;19.00;99.90
21918;DHT22;11123;49.882;8.662;2022-07-22T03:31:40;19.00;99.90
21918;DHT22;11123;49.882;8.662;2022-07-22T03:34:10;18.90;99.90
21918;DHT22;11123;49.882;8.662;2022-07-22T03:36:44;18.90;99.90
21918;DHT22;11123;49.882;8.662;2022-07-22T03:39:12;18.90;99.90
21918;DHT22;11123;49.882;8.662;2022-07-22T03:41:40;18.90;99.90
21918;DHT22;11123;49.882;8.662;2022-07-22T03:44:09;18.90;99.90
21918;DHT22;11123;49.882;8.662;2022-07-22T03:46:37;18.80;99.90
21918;DHT22;11123;49.882;8.662;2022-07-22T03:49:06;18.90;99.90
21918;DHT22;11123;49.882;8.662;2022-07-22T03:51:36;18.80;99.90
21918;DHT22;11123;49.882;8.662;2022-07-22T03:54:05;18.70;99.90
21918;DHT22;11123;49.882;8.662;2022-07-22T03:56:37;18.60;99.90
21918;DHT22;11123;49.882;8.662;2022-07-22T03:59:05;18.70;99.90
21918;DHT22;11123;49.882;8.662;2022-07-22T04:01:34;18.70;99.90
21918;DHT22;11123;49.882;8.662;2022-07-22T04:04:02;18.70;99.90
21918;DHT22;11123;49.882;8.662;2022-07-22T04:06:39;18.70;99.90
21918;DHT22;11123;49.882;8.662;2022-07-22T04:09:16;18.70;99.90
21918;DHT22;11123;49.882;8.662;2022-07-22T04:11:44;18.80;99.90
21918;DHT22;11123;49.882;8.662;2022-07-22T04:14:13;18.80;99.90
21918;DHT22;11123;49.882;8.662;2022-07-22T04:16:44;18.70;99.90
21918;DHT22;11123;49.882;8.662;2022-07-22T04:19:13;18.70;99.90
21918;DHT22;11123;49.882;8.662;2022-07-22T04:21:52;18.80;99.90
21918;DHT22;11123;49.882;8.662;2022-07-22T04:24:24;18.80;99.90
21918;DHT22;11123;49.882;8.662;2022-07-22T04:26:53;18.70;99.90
21918;DHT22;11123;49.882;8.662;2022-07-22T04:29:23;18.70;99.90
21918;DHT22;11123;49.882;8.662;2022-07-22T04:31:52;18.70;99.90
21918;DHT22;11123;49.882;8.662;2022-07-22T04:34:28;18.70;99.90
21918;DHT22;11123;49.882;8.662;2022-07-22T04:36:59;18.70;99.90
21918;DHT22;11123;49.882;8.662;2022-07-22T04:39:31;18.60;99.90
21918;DHT22;11123;49.882;8.662;2022-07-22T04:42:00;18.50;99.90
21918;DHT22;11123;49.882;8.662;2022-07-22T04:44:29;18.50;99.90
21918;DHT22;11123;49.882;8.662;2022-07-22T04:46:57;18.50;99.90
21918;DHT22;11123;49.882;8.662;2022-07-22T04:49:34;18.50;99.90
21918;DHT22;11123;49.882;8.662;2022-07-22T04:52:06;18.60;99.90
21918;DHT22;11123;49.882;8.662;2022-07-22T04:54:47;18.60;99.90
21918;DHT22;11123;49.882;8.662;2022-07-22T04:57:17;18.70;99.90
21918;DHT22;11123;49.882;8.662;2022-07-22T04:59:45;18.60;99.90
21918;DHT22;11123;49.882;8.662;2022-07-22T05:02:14;18.60;99.90
21918;DHT22;11123;49.882;8.662;2022-07-22T05:04:42;18.60;99.90
21918;DHT22;11123;49.882;8.662;2022-07-22T05:07:12;18.70;99.90
21918;DHT22;11123;49.882;8.662;2022-07-22T05:09:42;18.70;99.90
21918;DHT22;11123;49.882;8.662;2022-07-22T05:12:12;18.80;99.90
21918;DHT22;11123;49.882;8.662;2022-07-22T05:14:40;18.90;99.90
21918;DHT22;11123;49.882;8.662;2022-07-22T05:17:10;18.80;99.90
21918;DHT22;11123;49.882;8.662;2022-07-22T05:19:53;18.90;99.90
21918;DHT22;11123;49.882;8.662;2022-07-22T05:22:23;18.90;99.90
21918;DHT22;11123;49.882;8.662;2022-07-22T05:24:53;19.00;99.90
21918;DHT22;11123;49.882;8.662;2022-07-22T05:27:22;19.00;99.90
21918;DHT22;11123;49.882;8.662;2022-07-22T05:29:51;19.00;99.90
21918;DHT22;11123;49.882;8.662;2022-07-22T05:32:19;19.10;99.90
21918;DHT22;11123;49.882;8.662;2022-07-22T05:34:51;19.20;99.90
21918;DHT22;11123;49.882;8.662;2022-07-22T05:37:20;19.20;99.90
21918;DHT22;11123;49.882;8.662;2022-07-22T05:39:49;19.20;99.90
21918;DHT22;11123;49.882;8.662;2022-07-22T05:42:18;19.10;99.90
21918;DHT22;11123;49.882;8.662;2022-07-22T05:44:46;19.10;99.90
21918;DHT22;11123;49.882;8.662;2022-07-22T05:47:15;19.10;99.90
21918;DHT22;11123;49.882;8.662;2022-07-22T05:49:43;19.20;99.90
21918;DHT22;11123;49.882;8.662;2022-07-22T05:52:12;19.30;99.90
21918;DHT22;11123;49.882;8.662;2022-07-22T05:54:42;19.20;99.90
21918;DHT22;11123;49.882;8.662;2022-07-22T05:57:12;19.30;99.90
21918;DHT22;11123;49.882;8.662;2022-07-22T05:59:42;19.40;99.90
21918;DHT22;11123;49.882;8.662;2022-07-22T06:02:10;19.50;99.90
21918;DHT22;11123;49.882;8.662;2022-07-22T06:04:45;19.60;99.90
21918;DHT22;11123;49.882;8.662;2022-07-22T06:07:16;19.70;99.90
21918;DHT22;11123;49.882;8.662;2022-07-22T06:09:53;19.70;99.90
21918;DHT22;11123;49.882;8.662;2022-07-22T06:12:24;19.80;99.90
21918;DHT22;11123;49.882;8.662;2022-07-22T06:14:53;19.80;99.90
21918;DHT22;11123;49.882;8.662;2022-07-22T06:17:21;19.70;99.90
21918;DHT22;11123;49.882;8.662;2022-07-22T06:19:50;19.70;99.90
21918;DHT22;11123;49.882;8.662;2022-07-22T06:22:19;19.60;99.90
21918;DHT22;11123;49.882;8.662;2022-07-22T06:24:47;19.60;99.90
21918;DHT22;11123;49.882;8.662;2022-07-22T06:27:16;19.70;99.90
21918;DHT22;11123;49.882;8.662;2022-07-22T06:29:47;19.80;99.90
21918;DHT22;11123;49.882;8.662;2022-07-22T06:32:15;19.90;99.90
21918;DHT22;11123;49.882;8.662;2022-07-22T06:34:47;19.80;99.90
21918;DHT22;11123;49.882;8.662;2022-07-22T06:37:16;19.80;99.90
21918;DHT22;11123;49.882;8.662;2022-07-22T06:39:55;19.90;99.90
21918;DHT22;11123;49.882;8.662;2022-07-22T06:42:33;19.90;99.90
21918;DHT22;11123;49.882;8.662;2022-07-22T06:45:09;19.80;99.90
21918;DHT22;11123;49.882;8.662;2022-07-22T06:47:44;19.80;99.90
21918;DHT22;11123;49.882;8.662;2022-07-22T06:50:14;19.80;99.90
21918;DHT22;11123;49.882;8.662;2022-07-22T06:52:43;20.00;99.90
21918;DHT22;11123;49.882;8.662;2022-07-22T06:55:11;20.10;99.90
21918;DHT22;11123;49.882;8.662;2022-07-22T06:57:47;20.20;99.90
21918;DHT22;11123;49.882;8.662;2022-07-22T07:00:17;20.30;99.90
21918;DHT22;11123;49.882;8.662;2022-07-22T07:03:12;20.30;99.90
21918;DHT22;11123;49.882;8.662;2022-07-22T07:06:03;20.50;95.60
21918;DHT22;11123;49.882;8.662;2022-07-22T07:08:53;20.50;94.90
21918;DHT22;11123;49.882;8.662;2022-07-22T07:11:22;20.50;93.70
21918;DHT22;11123;49.882;8.662;2022-07-22T07:13:51;20.30;98.70
21918;DHT22;11123;49.882;8.662;2022-07-22T07:16:20;20.20;99.90
21918;DHT22;11123;49.882;8.662;2022-07-22T07:18:49;20.20;99.90
21918;DHT22;11123;49.882;8.662;2022-07-22T07:21:17;20.30;99.90
21918;DHT22;11123;49.882;8.662;2022-07-22T07:23:46;20.40;99.90
21918;DHT22;11123;49.882;8.662;2022-07-22T07:26:15;20.50;98.10
21918;DHT22;11123;49.882;8.662;2022-07-22T07:28:43;20.60;94.80
21918;DHT22;11123;49.882;8.662;2022-07-22T07:31:29;20.50;93.70
21918;DHT22;11123;49.882;8.662;2022-07-22T07:34:01;20.60;92.90
21918;DHT22;11123;49.882;8.662;2022-07-22T07:36:29;20.60;96.00
21918;DHT22;11123;49.882;8.662;2022-07-22T07:38:57;20.70;88.90
21918;DHT22;11123;49.882;8.662;2022-07-22T07:41:27;20.90;80.20
21918;DHT22;11123;49.882;8.662;2022-07-22T07:43:55;21.00;67.40
21918;DHT22;11123;49.882;8.662;2022-07-22T07:46:25;21.00;66.70
21918;DHT22;11123;49.882;8.662;2022-07-22T07:48:55;21.10;58.90
21918;DHT22;11123;49.882;8.662;2022-07-22T07:51:24;21.00;67.50
21918;DHT22;11123;49.882;8.662;2022-07-22T07:53:53;20.90;67.20
21918;DHT22;11123;49.882;8.662;2022-07-22T07:56:22;20.90;74.20
21918;DHT22;11123;49.882;8.662;2022-07-22T07:58:50;20.90;76.70
21918;DHT22;11123;49.882;8.662;2022-07-22T08:01:40;21.00;71.50
21918;DHT22;11123;49.882;8.662;2022-07-22T08:04:27;21.20;54.20
21918;DHT22;11123;49.882;8.662;2022-07-22T08:07:14;21.30;51.80
21918;DHT22;11123;49.882;8.662;2022-07-22T08:09:44;21.40;45.60
21918;DHT22;11123;49.882;8.662;2022-07-22T08:12:47;21.40;48.10
21918;DHT22;11123;49.882;8.662;2022-07-22T08:15:26;21.40;40.20
21918;DHT22;11123;49.882;8.662;2022-07-22T08:17:55;21.50;39.10
21918;DHT22;11123;49.882;8.662;2022-07-22T08:20:25;21.50;39.80
21918;DHT22;11123;49.882;8.662;2022-07-22T08:22:54;21.60;39.20
21918;DHT22;11123;49.882;8.662;2022-07-22T08:25:24;21.60;38.30
21918;DHT22;11123;49.882;8.662;2022-07-22T08:27:53;21.80;30.70
21918;DHT22;11123;49.882;8.662;2022-07-22T08:30:21;21.80;28.60
21918;DHT22;11123;49.882;8.662;2022-07-22T08:32:55;21.90;26.40
21918;DHT22;11123;49.882;8.662;2022-07-22T08:35:25;22.00;22.20
21918;DHT22;11123;49.882;8.662;2022-07-22T08:37:53;22.00;20.00
21918;DHT22;11123;49.882;8.662;2022-07-22T08:40:23;22.00;22.50
21918;DHT22;11123;49.882;8.662;2022-07-22T08:42:52;22.20;22.10
21918;DHT22;11123;49.882;8.662;2022-07-22T08:45:20;22.30;14.60
21918;DHT22;11123;49.882;8.662;2022-07-22T08:47:50;22.40;14.30
21918;DHT22;11123;49.882;8.662;2022-07-22T08:50:22;22.50;9.20
21918;DHT22;11123;49.882;8.662;2022-07-22T08:53:02;22.50;1.00
21918;DHT22;11123;49.882;8.662;2022-07-22T08:55:33;22.60;2.00
21918;DHT22;11123;49.882;8.662;2022-07-22T08:58:01;22.50;1.00
21918;DHT22;11123;49.882;8.662;2022-07-22T09:00:29;22.50;1.00
21918;DHT22;11123;49.882;8.662;2022-07-22T09:02:58;22.50;3.90
21918;DHT22;11123;49.882;8.662;2022-07-22T09:05:32;22.60;1.30
21918;DHT22;11123;49.882;8.662;2022-07-22T09:08:17;22.60;1.00
21918;DHT22;11123;49.882;8.662;2022-07-22T09:11:15;22.60;1.00
21918;DHT22;11123;49.882;8.662;2022-07-22T09:14:03;22.80;1.00
21918;DHT22;11123;49.882;8.662;2022-07-22T09:16:53;22.90;1.00
21918;DHT22;11123;49.882;8.662;2022-07-22T09:19:40;22.90;1.00
21918;DHT22;11123;49.882;8.662;2022-07-22T09:22:34;22.80;1.00
21918;DHT22;11123;49.882;8.662;2022-07-22T09:25:26;22.90;1.00
21918;DHT22;11123;49.882;8.662;2022-07-22T09:28:16;23.00;1.00
21918;DHT22;11123;49.882;8.662;2022-07-22T09:31:06;23.10;1.00
21918;DHT22;11123;49.882;8.662;2022-07-22T09:33:40;23.00;1.00
21918;DHT22;11123;49.882;8.662;2022-07-22T09:36:24;23.00;1.00
21918;DHT22;11123;49.882;8.662;2022-07-22T09:38:54;23.20;1.00
21918;DHT22;11123;49.882;8.662;2022-07-22T09:41:24;23.20;1.00
21918;DHT22;11123;49.882;8.662;2022-07-22T09:43:53;23.20;1.00
21918;DHT22;11123;49.882;8.662;2022-07-22T09:46:36;23.30;1.00
21918;DHT22;11123;49.882;8.662;2022-07-22T09:49:30;23.40;1.00
21918;DHT22;11123;49.882;8.662;2022-07-22T09:52:19;23.60;1.00
21918;DHT22;11123;49.882;8.662;2022-07-22T09:55:06;23.70;1.00
21918;DHT22;11123;49.882;8.662;2022-07-22T09:57:38;23.90;1.00
21918;DHT22;11123;49.882;8.662;2022-07-22T10:00:07;24.00;1.00
21918;DHT22;11123;49.882;8.662;2022-07-22T10:02:56;24.10;1.00
21918;DHT22;11123;49.882;8.662;2022-07-22T10:05:25;24.10;1.00
21918;DHT22;11123;49.882;8.662;2022-07-22T10:07:55;24.20;1.00
21918;DHT22;11123;49.882;8.662;2022-07-22T10:10:26;24.10;1.00
21918;DHT22;11123;49.882;8.662;2022-07-22T10:12:58;24.10;1.00
21918;DHT22;11123;49.882;8.662;2022-07-22T10:15:29;24.20;1.00
21918;DHT22;11123;49.882;8.662;2022-07-22T10:18:05;24.50;1.00
21918;DHT22;11123;49.882;8.662;2022-07-22T10:20:37;24.60;1.00
21918;DHT22;11123;49.882;8.662;2022-07-22T10:23:06;24.70;1.00
21918;DHT22;11123;49.882;8.662;2022-07-22T10:25:52;24.80;1.00
21918;DHT22;11123;49.882;8.662;2022-07-22T10:28:24;24.80;1.00
21918;DHT22;11123;49.882;8.662;2022-07-22T10:30:53;24.90;1.00
21918;DHT22;11123;49.882;8.662;2022-07-22T10:33:21;25.10;1.00
21918;DHT22;11123;49.882;8.662;2022-07-22T10:35:58;25.20;1.00
21918;DHT22;11123;49.882;8.662;2022-07-22T10:38:30;25.10;1.00
21918;DHT22;11123;49.882;8.662;2022-07-22T10:41:00;25.10;1.00
21918;DHT22;11123;49.882;8.662;2022-07-22T10:43:32;25.20;1.00
21918;DHT22;11123;49.882;8.662;2022-07-22T10:46:13;25.40;1.00
21918;DHT22;11123;49.882;8.662;2022-07-22T10:48:45;25.60;1.00
21918;DHT22;11123;49.882;8.662;2022-07-22T10:51:16;25.60;1.00
21918;DHT22;11123;49.882;8.662;2022-07-22T10:53:47;25.60;1.00
21918;DHT22;11123;49.882;8.662;2022-07-22T10:56:21;25.60;1.00
21918;DHT22;11123;49.882;8.662;2022-07-22T10:58:56;25.80;1.00
21918;DHT22;11123;49.882;8.662;2022-07-22T11:01:28;25.90;1.00
21918;DHT22;11123;49.882;8.662;2022-07-22T11:04:11;25.80;1.00
21918;DHT22;11123;49.882;8.662;2022-07-22T11:06:46;25.90;1.00
21918;DHT22;11123;49.882;8.662;2022-07-22T11:09:15;25.90;1.00
21918;DHT22;11123;49.882;8.662;2022-07-22T11:11:46;25.90;1.00
21918;DHT22;11123;49.882;8.662;2022-07-22T11:14:20;25.90;1.00
21918;DHT22;11123;49.882;8.662;2022-07-22T11:16:51;26.00;1.00
21918;DHT22;11123;49.882;8.662;2022-07-22T11:19:23;26.30;1.00
21918;DHT22;11123;49.882;8.662;2022-07-22T11:21:53;26.70;1.00
21918;DHT22;11123;49.882;8.662;2022-07-22T11:24:24;26.80;1.00
21918;DHT22;11123;49.882;8.662;2022-07-22T11:26:54;26.90;1.00
21918;DHT22;11123;49.882;8.662;2022-07-22T11:29:34;27.10;1.00
21918;DHT22;11123;49.882;8.662;2022-07-22T11:32:04;27.40;1.00
21918;DHT22;11123;49.882;8.662;2022-07-22T11:34:35;27.70;1.00
21918;DHT22;11123;49.882;8.662;2022-07-22T11:37:04;27.60;1.00
21918;DHT22;11123;49.882;8.662;2022-07-22T11:39:33;27.50;1.00
21918;DHT22;11123;49.882;8.662;2022-07-22T11:42:02;27.70;1.00
21918;DHT22;11123;49.882;8.662;2022-07-22T11:44:36;28.10;1.00
21918;DHT22;11123;49.882;8.662;2022-07-22T11:47:06;28.40;1.00
21918;DHT22;11123;49.882;8.662;2022-07-22T11:49:36;28.50;99.90
21918;DHT22;11123;49.882;8.662;2022-07-22T11:52:07;28.70;99.90
21918;DHT22;11123;49.882;8.662;2022-07-22T11:54:39;28.80;99.90
21918;DHT22;11123;49.882;8.662;2022-07-22T11:57:08;29.00;99.90
21918;DHT22;11123;49.882;8.662;2022-07-22T11:59:38;29.20;99.90
21918;DHT22;11123;49.882;8.662;2022-07-22T12:02:07;29.50;99.90
21918;DHT22;11123;49.882;8.662;2022-07-22T12:04:37;30.10;99.90
21918;DHT22;11123;49.882;8.662;2022-07-22T12:07:06;29.40;99.90
21918;DHT22;11123;49.882;8.662;2022-07-22T12:09:36;29.20;99.90
21918;DHT22;11123;49.882;8.662;2022-07-22T12:12:05;28.60;99.90
21918;DHT22;11123;49.882;8.662;2022-07-22T12:14:34;28.00;99.90
21918;DHT22;11123;49.882;8.662;2022-07-22T12:17:05;27.80;99.90
21918;DHT22;11123;49.882;8.662;2022-07-22T12:19:35;28.00;99.90
21918;DHT22;11123;49.882;8.662;2022-07-22T12:22:05;28.20;99.90
21918;DHT22;11123;49.882;8.662;2022-07-22T12:24:36;28.60;99.90
21918;DHT22;11123;49.882;8.662;2022-07-22T12:27:06;28.90;99.90
21918;DHT22;11123;49.882;8.662;2022-07-22T12:29:42;29.00;99.90
21918;DHT22;11123;49.882;8.662;2022-07-22T12:32:15;29.10;99.90
21918;DHT22;11123;49.882;8.662;2022-07-22T12:34:46;29.10;99.90
21918;DHT22;11123;49.882;8.662;2022-07-22T12:37:17;29.20;99.90
21918;DHT22;11123;49.882;8.662;2022-07-22T12:39:53;29.00;99.90
21918;DHT22;11123;49.882;8.662;2022-07-22T12:42:23;28.90;99.90
21918;DHT22;11123;49.882;8.662;2022-07-22T12:44:53;28.90;99.90
21918;DHT22;11123;49.882;8.662;2022-07-22T12:47:56;28.90;99.90
21918;DHT22;11123;49.882;8.662;2022-07-22T12:50:27;29.00;99.90
21918;DHT22;11123;49.882;8.662;2022-07-22T12:52:58;29.10;99.90
21918;DHT22;11123;49.882;8.662;2022-07-22T12:55:47;29.20;99.90
21918;DHT22;11123;49.882;8.662;2022-07-22T12:58:19;29.20;99.90
21918;DHT22;11123;49.882;8.662;2022-07-22T13:00:50;29.30;99.90
21918;DHT22;11123;49.882;8.662;2022-07-22T13:03:21;29.40;99.90
21918;DHT22;11123;49.882;8.662;2022-07-22T13:05:54;29.60;99.90
21918;DHT22;11123;49.882;8.662;2022-07-22T13:08:23;29.90;99.90
21918;DHT22;11123;49.882;8.662;2022-07-22T13:10:52;29.00;99.90
21918;DHT22;11123;49.882;8.662;2022-07-22T13:13:22;28.60;99.90
21918;DHT22;11123;49.882;8.662;2022-07-22T13:15:50;28.90;99.90
21918;DHT22;11123;49.882;8.662;2022-07-22T13:18:20;29.10;99.90
21918;DHT22;11123;49.882;8.662;2022-07-22T13:20:49;29.30;99.90
21918;DHT22;11123;49.882;8.662;2022-07-22T13:23:17;29.50;99.90
21918;DHT22;11123;49.882;8.662;2022-07-22T13:25:46;29.60;99.90
21918;DHT22;11123;49.882;8.662;2022-07-22T13:28:21;29.80;99.90
21918;DHT22;11123;49.882;8.662;2022-07-22T13:30:49;30.00;99.90
21918;DHT22;11123;49.882;8.662;2022-07-22T13:33:17;30.20;99.90
21918;DHT22;11123;49.882;8.662;2022-07-22T13:35:47;30.20;99.90
21918;DHT22;11123;49.882;8.662;2022-07-22T13:38:15;30.20;99.90
21918;DHT22;11123;49.882;8.662;2022-07-22T13:40:44;30.40;99.90
21918;DHT22;11123;49.882;8.662;2022-07-22T13:43:17;30.60;99.90
21918;DHT22;11123;49.882;8.662;2022-07-22T13:45:46;30.60;99.90
21918;DHT22;11123;49.882;8.662;2022-07-22T13:48:14;30.70;99.90
21918;DHT22;11123;49.882;8.662;2022-07-22T13:50:44;30.60;99.90
21918;DHT22;11123;49.882;8.662;2022-07-22T13:53:14;30.40;99.90
21918;DHT22;11123;49.882;8.662;2022-07-22T13:55:42;30.30;99.90
21918;DHT22;11123;49.882;8.662;2022-07-22T13:58:10;30.40;99.90
21918;DHT22;11123;49.882;8.662;2022-07-22T14:00:40;30.60;99.90
21918;DHT22;11123;49.882;8.662;2022-07-22T14:03:09;30.60;99.90
21918;DHT22;11123;49.882;8.662;2022-07-22T14:05:37;30.90;99.90
21918;DHT22;11123;49.882;8.662;2022-07-22T14:08:05;30.80;99.90
21918;DHT22;11123;49.882;8.662;2022-07-22T14:10:35;30.10;99.90
21918;DHT22;11123;49.882;8.662;2022-07-22T14:13:03;30.00;99.90
21918;DHT22;11123;49.882;8.662;2022-07-22T14:15:33;30.20;99.90
21918;DHT22;11123;49.882;8.662;2022-07-22T14:18:01;30.40;99.90
21918;DHT22;11123;49.882;8.662;2022-07-22T14:20:34;30.60;99.90
21918;DHT22;11123;49.882;8.662;2022-07-22T14:23:03;30.40;99.90
21918;DHT22;11123;49.882;8.662;2022-07-22T14:25:32;30.40;99.90
21918;DHT22;11123;49.882;8.662;2022-07-22T14:28:02;30.40;99.90
21918;DHT22;11123;49.882;8.662;2022-07-22T14:30:51;30.50;99.90
21918;DHT22;11123;49.882;8.662;2022-07-22T14:33:19;30.20;99.90
21918;DHT22;11123;49.882;8.662;2022-07-22T14:35:48;30.60;99.90
21918;DHT22;11123;49.882;8.662;2022-07-22T14:38:16;30.90;99.90
21918;DHT22;11123;49.882;8.662;2022-07-22T14:40:46;30.80;99.90
21918;DHT22;11123;49.882;8.662;2022-07-22T14:43:16;30.90;99.90
21918;DHT22;11123;49.882;8.662;2022-07-22T14:46:05;31.00;99.90
21918;DHT22;11123;49.882;8.662;2022-07-22T14:48:36;31.20;99.90
21918;DHT22;11123;49.882;8.662;2022-07-22T14:51:05;31.60;99.90
21918;DHT22;11123;49.882;8.662;2022-07-22T14:53:33;31.80;99.90
21918;DHT22;11123;49.882;8.662;2022-07-22T14:56:02;31.90;99.90
21918;DHT22;11123;49.882;8.662;2022-07-22T14:58:31;31.90;99.90
21918;DHT22;11123;49.882;8.662;2022-07-22T15:01:00;31.50;99.90
21918;DHT22;11123;49.882;8.662;2022-07-22T15:03:28;31.40;99.90
21918;DHT22;11123;49.882;8.662;2022-07-22T15:05:56;31.60;99.90
21918;DHT22;11123;49.882;8.662;2022-07-22T15:08:24;32.20;99.90
21918;DHT22;11123;49.882;8.662;2022-07-22T15:10:52;32.40;99.90
21918;DHT22;11123;49.882;8.662;2022-07-22T15:13:21;32.80;94.60
21918;DHT22;11123;49.882;8.662;2022-07-22T15:15:54;33.00;60.20
21918;DHT22;11123;49.882;8.662;2022-07-22T15:18:23;33.10;42.30
21918;DHT22;11123;49.882;8.662;2022-07-22T15:20:52;33.60;24.90
21918;DHT22;11123;49.882;8.662;2022-07-22T15:23:23;34.50;1.00
21918;DHT22;11123;49.882;8.662;2022-07-22T15:25:53;35.50;1.00
21918;DHT22;11123;49.882;8.662;2022-07-22T15:28:21;36.00;1.00
21918;DHT22;11123;49.882;8.662;2022-07-22T15:31:06;35.70;1.00
21918;DHT22;11123;49.882;8.662;2022-07-22T15:33:35;34.50;1.00
21918;DHT22;11123;49.882;8.662;2022-07-22T15:36:07;34.10;1.00
21918;DHT22;11123;49.882;8.662;2022-07-22T15:38:37;34.10;1.00
21918;DHT22;11123;49.882;8.662;2022-07-22T15:41:06;33.60;1.00
21918;DHT22;11123;49.882;8.662;2022-07-22T15:43:35;32.90;1.00
21918;DHT22;11123;49.882;8.662;2022-07-22T15:46:07;32.50;1.00
21918;DHT22;11123;49.882;8.662;2022-07-22T15:48:37;32.40;1.00
21918;DHT22;11123;49.882;8.662;2022-07-22T15:51:07;32.30;1.00
21918;DHT22;11123;49.882;8.662;2022-07-22T15:53:36;32.00;1.00
21918;DHT22;11123;49.882;8.662;2022-07-22T15:56:04;31.70;1.00
21918;DHT22;11123;49.882;8.662;2022-07-22T15:58:33;31.30;1.00
21918;DHT22;11123;49.882;8.662;2022-07-22T16:01:39;31.10;1.00